createdAt,value
2022-11-29T00:01:53.510Z,61.20
2022-11-29T00:04:20.844Z,81.22
2022-11-29T00:06:48.144Z,63.28
2022-11-29T00:09:15.448Z,87.70
2022-11-29T00:12:01.769Z,92.38
2022-11-29T00:14:29.531Z,77.47
2022-11-29T00:17:05.891Z,93.10
2022-11-29T00:19:35.698Z,88.82
2022-11-29T00:22:04.259Z,78.50
2022-11-29T00:24:32.635Z,87.95
2022-11-29T00:27:00.113Z,75.78
2022-11-29T00:32:12.448Z,49.75
2022-11-29T00:34:39.891Z,57.05
2022-11-29T00:37:09.244Z,66.65
2022-11-29T00:39:36.890Z,61.10
2022-11-29T00:42:04.308Z,78.05
2022-11-29T00:44:31.624Z,74.38
2022-11-29T00:46:59.193Z,71.63
2022-11-29T00:49:26.581Z,71.38
2022-11-29T00:51:53.866Z,66.72
2022-11-29T00:54:21.316Z,72.13
2022-11-29T00:56:48.641Z,65.28
2022-11-29T00:59:16.056Z,60.72
2022-11-29T01:01:43.471Z,76.47
2022-11-29T01:04:10.863Z,75.68
2022-11-29T01:06:38.364Z,73.68
2022-11-29T01:09:05.942Z,73.40
2022-11-29T01:11:33.839Z,69.03
2022-11-29T01:14:02.437Z,79.75
2022-11-29T01:16:31.291Z,66.32
2022-11-29T01:18:58.697Z,75.75
2022-11-29T01:21:29.617Z,58.97
2022-11-29T01:23:57.346Z,57.78
2022-11-29T01:26:27.187Z,72.72
2022-11-29T01:28:57.097Z,62.55
2022-11-29T01:33:54.978Z,49.90
2022-11-29T01:36:23.086Z,61.03
2022-11-29T01:38:50.543Z,56.10
2022-11-29T01:41:26.321Z,54.13
2022-11-29T01:44:11.817Z,57.03
2022-11-29T01:46:41.796Z,64.10
2022-11-29T01:49:11.817Z,49.47
2022-11-29T01:54:10.036Z,43.05
2022-11-29T01:56:38.686Z,48.45
2022-11-29T01:59:11.267Z,46.75
2022-11-29T02:01:39.098Z,57.70
2022-11-29T02:04:07.400Z,49.08
2022-11-29T02:06:37.159Z,50.88
2022-11-29T02:09:07.827Z,48.35
2022-11-29T02:11:50.256Z,49.13
2022-11-29T02:14:33.883Z,48.08
2022-11-29T02:17:13.656Z,46.40
2022-11-29T02:20:08.692Z,45.17
2022-11-29T02:22:53.292Z,51.35
2022-11-29T02:25:57.584Z,42.53
2022-11-29T02:29:02.445Z,45.25
2022-11-29T02:31:32.636Z,44.58
2022-11-29T02:34:19.176Z,39.45
2022-11-29T02:36:51.581Z,45.72
2022-11-29T02:39:37.753Z,45.78
2022-11-29T02:42:56.421Z,39.90
2022-11-29T02:45:43.119Z,38.85
2022-11-29T02:48:29.266Z,32.03
2022-11-29T02:51:15.474Z,33.42
2022-11-29T02:54:02.757Z,31.75
2022-11-29T02:56:48.890Z,31.45
2022-11-29T02:59:39.209Z,31.92
2022-11-29T03:02:15.607Z,31.85
2022-11-29T03:05:04.738Z,28.08
2022-11-29T03:07:58.546Z,33.67
2022-11-29T03:10:55.736Z,36.75
2022-11-29T03:13:38.451Z,30.27
2022-11-29T03:16:39.733Z,38.67
2022-11-29T03:19:33.264Z,31.13
2022-11-29T03:22:39.439Z,30.45
2022-11-29T03:25:22.629Z,36.60
2022-11-29T03:28:16.684Z,31.75
2022-11-29T03:31:10.117Z,35.15
2022-11-29T03:33:56.133Z,33.35
2022-11-29T03:36:44.749Z,36.05
2022-11-29T03:39:18.637Z,30.30
2022-11-29T03:41:52.247Z,33.45
2022-11-29T03:44:21.709Z,32.20
2022-11-29T03:46:59.493Z,29.63
2022-11-29T03:49:42.773Z,35.88
2022-11-29T03:52:32.824Z,30.42
2022-11-29T03:55:19.432Z,34.05
2022-11-29T03:58:09.874Z,29.65
2022-11-29T04:00:49.425Z,32.05
2022-11-29T04:03:35.502Z,30.80
2022-11-29T04:06:27.575Z,30.50
2022-11-29T04:09:18.548Z,32.28
2022-11-29T04:11:54.990Z,28.05
2022-11-29T04:14:43.047Z,28.52
2022-11-29T04:17:10.567Z,28.02
2022-11-29T04:19:59.428Z,27.52
2022-11-29T04:22:41.610Z,30.00
2022-11-29T04:25:32.633Z,28.88
2022-11-29T04:27:59.966Z,29.17
2022-11-29T04:30:36.849Z,28.65
2022-11-29T04:33:25.278Z,29.20
2022-11-29T04:36:29.253Z,30.23
2022-11-29T04:38:59.603Z,29.50
2022-11-29T04:41:32.975Z,32.10
2022-11-29T04:44:21.910Z,28.88
2022-11-29T04:47:14.183Z,26.35
2022-11-29T04:50:18.135Z,27.73
2022-11-29T04:52:54.533Z,27.30
2022-11-29T04:55:39.999Z,27.05
2022-11-29T04:58:34.779Z,29.00
2022-11-29T05:01:23.790Z,26.83
2022-11-29T05:04:09.627Z,28.67
2022-11-29T05:06:49.052Z,26.92
2022-11-29T05:09:31.943Z,27.45
2022-11-29T05:12:27.228Z,26.77
2022-11-29T05:15:32.106Z,27.98
2022-11-29T05:18:14.767Z,25.17
2022-11-29T05:21:05.780Z,26.17
2022-11-29T05:24:08.449Z,30.98
2022-11-29T05:26:49.336Z,28.88
2022-11-29T05:29:31.416Z,29.92
2022-11-29T05:32:28.700Z,29.92
2022-11-29T05:35:25.029Z,26.80
2022-11-29T05:38:00.494Z,26.73
2022-11-29T05:40:44.474Z,29.27
2022-11-29T05:43:14.813Z,27.90
2022-11-29T05:46:26.352Z,29.38
2022-11-29T05:49:15.394Z,27.73
2022-11-29T05:51:53.758Z,37.87
2022-11-29T05:54:33.845Z,27.30
2022-11-29T05:57:13.919Z,29.75
2022-11-29T05:59:43.772Z,29.55
2022-11-29T06:02:26.060Z,28.90
2022-11-29T06:05:24.490Z,28.80
2022-11-29T06:08:13.254Z,29.77
2022-11-29T06:11:12.777Z,27.98
2022-11-29T06:14:09.003Z,29.05
2022-11-29T06:17:01.877Z,23.90
2022-11-29T06:19:34.622Z,26.10
2022-11-29T06:22:20.991Z,26.90
2022-11-29T06:25:07.021Z,26.30
2022-11-29T06:27:42.951Z,27.65
2022-11-29T06:30:26.637Z,26.77
2022-11-29T06:33:01.372Z,26.23
2022-11-29T06:35:51.540Z,28.17
2022-11-29T06:38:21.721Z,26.45
2022-11-29T06:40:51.173Z,31.52
2022-11-29T06:43:18.826Z,29.65
2022-11-29T06:46:00.619Z,29.75
2022-11-29T06:48:34.610Z,29.45
2022-11-29T06:51:07.993Z,29.05
2022-11-29T06:53:49.354Z,36.13
2022-11-29T06:56:35.323Z,29.55
2022-11-29T06:59:17.310Z,32.30
2022-11-29T07:01:54.772Z,31.80
2022-11-29T07:04:46.779Z,31.58
2022-11-29T07:07:19.742Z,29.25
2022-11-29T07:09:50.953Z,30.08
2022-11-29T07:12:19.119Z,28.88
2022-11-29T07:14:47.009Z,31.15
2022-11-29T07:17:43.594Z,33.88
2022-11-29T07:20:55.194Z,39.40
2022-11-29T07:23:28.607Z,64.28
2022-11-29T07:25:58.978Z,38.95
2022-11-29T07:28:40.881Z,31.08
2022-11-29T07:31:17.806Z,29.00
2022-11-29T07:34:07.196Z,33.85
2022-11-29T07:36:44.547Z,37.40
2022-11-29T07:39:37.602Z,26.60
2022-11-29T07:42:11.077Z,31.10
2022-11-29T07:45:00.011Z,28.95
2022-11-29T07:47:31.261Z,29.37
2022-11-29T07:50:01.619Z,27.40
2022-11-29T07:52:28.937Z,31.38
2022-11-29T07:54:56.785Z,36.95
2022-11-29T07:57:24.076Z,38.28
2022-11-29T07:59:51.654Z,32.72
2022-11-29T08:02:31.891Z,30.85
2022-11-29T08:04:59.342Z,32.38
2022-11-29T08:07:26.731Z,29.33
2022-11-29T08:09:54.122Z,32.17
2022-11-29T08:12:21.529Z,27.45
2022-11-29T08:14:48.866Z,29.45
2022-11-29T08:17:18.464Z,29.05
2022-11-29T08:19:45.792Z,30.85
2022-11-29T08:22:13.693Z,26.50
2022-11-29T08:24:41.113Z,32.47
2022-11-29T08:27:08.473Z,27.02
2022-11-29T08:29:35.941Z,29.00
2022-11-29T08:32:03.525Z,31.88
2022-11-29T08:34:30.944Z,29.50
2022-11-29T08:36:58.285Z,32.15
2022-11-29T08:39:25.700Z,26.25
2022-11-29T08:41:53.058Z,29.75
2022-11-29T08:44:20.402Z,33.17
2022-11-29T08:47:06.159Z,26.30
2022-11-29T08:49:33.488Z,25.98
2022-11-29T08:52:19.672Z,26.00
2022-11-29T08:54:47.418Z,31.33
2022-11-29T08:57:39.144Z,28.20
2022-11-29T09:00:02.795Z,29.70
2022-11-29T09:02:30.213Z,30.67
2022-11-29T09:04:57.582Z,32.92
2022-11-29T09:07:25.056Z,30.08
2022-11-29T09:09:52.379Z,32.85
2022-11-29T09:12:19.828Z,31.52
2022-11-29T09:14:47.390Z,29.75
2022-11-29T09:17:14.869Z,26.40
2022-11-29T09:19:42.213Z,29.90
2022-11-29T09:22:09.609Z,27.33
2022-11-29T09:24:36.942Z,28.38
2022-11-29T09:27:04.569Z,27.58
2022-11-29T09:29:32.484Z,26.20
2022-11-29T09:31:59.838Z,27.40
2022-11-29T09:34:27.204Z,30.98
2022-11-29T09:36:54.617Z,27.48
2022-11-29T09:39:22.099Z,28.70
2022-11-29T09:42:06.080Z,28.70
2022-11-29T09:45:18.578Z,27.35
2022-11-29T09:47:58.021Z,36.08
2022-11-29T09:50:37.245Z,29.02
2022-11-29T09:53:22.790Z,27.92
2022-11-29T09:56:18.126Z,25.60
2022-11-29T09:58:56.848Z,27.75
2022-11-29T10:01:29.356Z,25.67
2022-11-29T10:04:02.759Z,27.02
2022-11-29T10:06:38.804Z,25.35
2022-11-29T10:09:33.743Z,26.38
2022-11-29T10:12:15.290Z,25.65
2022-11-29T10:15:05.996Z,26.00
2022-11-29T10:17:38.897Z,26.67
2022-11-29T10:20:18.997Z,29.10
2022-11-29T10:22:56.049Z,28.25
2022-11-29T10:25:28.462Z,28.83
2022-11-29T10:27:55.903Z,28.95
2022-11-29T10:30:23.355Z,30.50
2022-11-29T10:33:00.509Z,31.55
2022-11-29T10:35:29.455Z,27.65
2022-11-29T10:40:54.498Z,27.83
2022-11-29T10:43:22.058Z,30.45
2022-11-29T10:45:55.965Z,29.65
2022-11-29T10:48:31.741Z,31.65
2022-11-29T10:51:01.090Z,30.35
2022-11-29T10:53:35.772Z,29.10
2022-11-29T10:56:19.948Z,28.02
2022-11-29T10:59:03.387Z,29.25
2022-11-29T11:01:33.807Z,30.52
2022-11-29T11:04:04.299Z,29.30
2022-11-29T11:06:51.575Z,28.33
2022-11-29T11:09:32.307Z,28.65
2022-11-29T11:12:02.970Z,30.70
2022-11-29T11:14:37.628Z,30.45
2022-11-29T11:17:36.534Z,29.15
2022-11-29T11:20:19.038Z,29.30
2022-11-29T11:22:58.723Z,29.08
2022-11-29T11:25:30.613Z,31.33
2022-11-29T11:28:13.711Z,31.98
2022-11-29T11:30:52.837Z,32.35
2022-11-29T11:33:30.357Z,34.10
2022-11-29T11:36:11.908Z,32.40
2022-11-29T11:38:49.009Z,30.83
2022-11-29T11:41:16.680Z,31.17
2022-11-29T11:43:59.068Z,30.85
2022-11-29T11:46:50.294Z,33.38
2022-11-29T11:49:35.842Z,35.42
2022-11-29T11:52:06.160Z,35.58
2022-11-29T11:54:33.660Z,34.67
2022-11-29T11:57:01.083Z,34.08
2022-11-29T11:59:28.648Z,35.85
2022-11-29T12:01:56.018Z,35.28
2022-11-29T12:04:37.139Z,36.08
2022-11-29T12:07:17.267Z,37.70
2022-11-29T12:10:00.445Z,34.85
2022-11-29T12:12:32.213Z,32.00
2022-11-29T12:15:16.361Z,30.80
2022-11-29T12:17:52.221Z,35.15
2022-11-29T12:20:25.059Z,36.47
2022-11-29T12:23:13.975Z,36.22
2022-11-29T12:25:47.572Z,38.92
2022-11-29T12:28:20.571Z,39.63
2022-11-29T12:31:16.615Z,36.95
2022-11-29T12:33:54.714Z,33.42
2022-11-29T12:36:42.111Z,37.10
2022-11-29T12:39:23.776Z,35.05
2022-11-29T12:42:18.582Z,32.33
2022-11-29T12:44:53.716Z,34.70
2022-11-29T12:47:37.141Z,35.55
2022-11-29T12:50:07.413Z,52.42
2022-11-29T12:52:44.681Z,40.47
2022-11-29T12:55:33.629Z,40.97
2022-11-29T12:58:18.280Z,36.63
2022-11-29T13:01:24.638Z,39.17
2022-11-29T13:04:22.809Z,33.65
2022-11-29T13:07:02.567Z,35.15
2022-11-29T13:09:32.864Z,34.92
2022-11-29T13:12:12.956Z,33.67
2022-11-29T13:14:48.379Z,36.75
2022-11-29T13:17:35.244Z,36.17
2022-11-29T13:20:22.383Z,33.55
2022-11-29T13:22:59.655Z,29.92
2022-11-29T13:25:41.724Z,38.10
2022-11-29T13:28:22.894Z,32.30
2022-11-29T13:30:51.006Z,34.17
2022-11-29T13:34:08.247Z,33.70
2022-11-29T13:36:50.787Z,32.30
2022-11-29T13:39:28.349Z,34.72
2022-11-29T13:42:05.348Z,33.95
2022-11-29T13:44:49.299Z,41.88
2022-11-29T13:47:18.393Z,36.30
2022-11-29T13:49:59.977Z,40.33
2022-11-29T13:52:48.097Z,32.17
2022-11-29T13:55:28.973Z,32.38
2022-11-29T13:58:30.980Z,32.80
2022-11-29T14:01:09.581Z,33.65
2022-11-29T14:03:43.114Z,33.38
2022-11-29T14:06:36.052Z,34.80
2022-11-29T14:09:26.900Z,33.20
2022-11-29T14:12:17.025Z,34.83
2022-11-29T14:15:06.095Z,31.35
2022-11-29T14:17:55.310Z,32.83
2022-11-29T14:20:22.550Z,33.92
2022-11-29T14:23:05.334Z,34.08
2022-11-29T14:25:52.782Z,31.38
2022-11-29T14:28:23.225Z,33.80
2022-11-29T14:30:53.436Z,33.92
2022-11-29T14:33:28.960Z,42.65
2022-11-29T14:36:09.022Z,41.90
2022-11-29T14:38:48.450Z,42.70
2022-11-29T14:42:08.198Z,46.47
2022-11-29T14:44:48.563Z,43.90
2022-11-29T14:47:26.890Z,49.05
2022-11-29T14:49:57.379Z,41.83
2022-11-29T14:52:29.727Z,43.63
2022-11-29T14:55:04.327Z,39.75
2022-11-29T14:57:50.110Z,38.85
2022-11-29T15:00:21.183Z,36.53
2022-11-29T15:02:53.148Z,35.20
2022-11-29T15:05:31.232Z,36.15
2022-11-29T15:08:23.083Z,34.45
2022-11-29T15:11:12.190Z,36.75
2022-11-29T15:13:51.153Z,36.85
2022-11-29T15:16:48.155Z,34.65
2022-11-29T15:19:40.281Z,37.53
2022-11-29T15:22:57.359Z,35.03
2022-11-29T15:25:28.343Z,35.55
2022-11-29T15:27:58.253Z,40.30
2022-11-29T15:32:57.076Z,37.85
2022-11-29T15:35:24.945Z,38.58
2022-11-29T15:37:53.819Z,45.70
2022-11-29T15:40:31.431Z,45.92
2022-11-29T15:43:22.379Z,36.17
2022-11-29T15:45:51.703Z,40.65
2022-11-29T15:48:38.625Z,42.65
2022-11-29T15:51:28.348Z,40.22
2022-11-29T15:54:19.915Z,39.13
2022-11-29T15:57:02.448Z,41.53
2022-11-29T15:59:38.822Z,40.83
2022-11-29T16:02:21.602Z,40.53
2022-11-29T16:04:52.039Z,42.75
2022-11-29T16:07:22.538Z,40.90
2022-11-29T16:09:57.559Z,44.05
2022-11-29T16:12:25.274Z,40.30
2022-11-29T16:14:53.913Z,45.55
2022-11-29T16:17:24.794Z,48.75
2022-11-29T16:19:52.100Z,52.00
2022-11-29T16:22:24.371Z,45.10
2022-11-29T16:24:53.802Z,44.50
2022-11-29T16:27:23.058Z,44.47
2022-11-29T16:29:55.041Z,39.20
2022-11-29T16:32:32.678Z,46.75
2022-11-29T16:35:15.355Z,39.83
2022-11-29T16:37:44.634Z,44.75
2022-11-29T16:40:22.749Z,49.78
2022-11-29T16:43:20.034Z,41.33
2022-11-29T16:45:47.464Z,48.83
2022-11-29T16:48:29.894Z,53.22
2022-11-29T16:51:16.086Z,54.35
2022-11-29T16:53:48.108Z,40.25
2022-11-29T16:56:18.434Z,39.47
2022-11-29T16:59:25.463Z,43.83
2022-11-29T17:01:39.814Z,39.53
2022-11-29T17:04:09.067Z,41.38
2022-11-29T17:06:37.081Z,42.55
2022-11-29T17:09:05.811Z,41.35
2022-11-29T17:11:33.154Z,60.22
2022-11-29T17:14:00.475Z,45.97
2022-11-29T17:16:27.941Z,42.05
2022-11-29T17:18:55.357Z,45.53
2022-11-29T17:21:25.963Z,48.70
2022-11-29T17:23:53.929Z,53.45
2022-11-29T17:26:21.976Z,51.58
2022-11-29T17:28:51.534Z,47.47
2022-11-29T17:31:21.454Z,49.17
2022-11-29T17:36:19.579Z,41.15
2022-11-29T17:38:47.448Z,52.65
2022-11-29T17:41:25.239Z,44.55
2022-11-29T17:43:54.152Z,45.83
2022-11-29T17:46:32.549Z,44.00
2022-11-29T17:49:02.545Z,41.03
2022-11-29T17:54:17.532Z,50.55
2022-11-29T17:56:44.832Z,43.13
2022-11-29T17:59:12.186Z,42.45
2022-11-29T18:01:39.580Z,49.55
2022-11-29T18:04:08.399Z,43.70
2022-11-29T18:06:38.188Z,52.00
2022-11-29T18:09:07.698Z,44.33
2022-11-29T18:11:45.277Z,54.97
2022-11-29T18:14:20.649Z,56.25
2022-11-29T18:16:48.498Z,48.95
2022-11-29T18:19:18.766Z,44.20
2022-11-29T18:21:46.198Z,44.22
2022-11-29T18:24:13.904Z,47.40
2022-11-29T18:26:41.905Z,59.92
2022-11-29T18:29:10.119Z,51.65
2022-11-29T18:31:40.298Z,51.08
2022-11-29T18:34:09.819Z,50.28
2022-11-29T18:39:11.605Z,46.25
2022-11-29T18:41:41.908Z,38.45
2022-11-29T18:44:12.070Z,40.92
2022-11-29T18:46:41.191Z,49.67
2022-11-29T18:49:09.966Z,48.07
2022-11-29T18:51:41.180Z,45.42
2022-11-29T18:54:08.727Z,49.75
2022-11-29T18:56:37.008Z,46.63
2022-11-29T18:59:10.861Z,46.47
2022-11-29T19:01:43.167Z,47.55
2022-11-29T19:04:16.676Z,54.50
2022-11-29T19:06:44.262Z,50.35
2022-11-29T19:09:14.665Z,45.08
2022-11-29T19:11:42.002Z,60.50
2022-11-29T19:14:11.807Z,48.65
2022-11-29T19:19:08.200Z,37.50
2022-11-29T19:21:35.930Z,40.88
2022-11-29T19:24:06.833Z,42.20
2022-11-29T19:26:34.702Z,36.95
2022-11-29T19:29:02.013Z,39.38
2022-11-29T19:31:29.930Z,35.38
2022-11-29T19:33:57.526Z,41.30
2022-11-29T19:36:30.283Z,36.72
2022-11-29T19:39:00.507Z,36.97
2022-11-29T19:41:32.291Z,38.58
2022-11-29T19:44:02.430Z,38.83
2022-11-29T19:46:35.661Z,45.60
2022-11-29T19:49:05.254Z,48.10
2022-11-29T19:51:33.714Z,42.13
2022-11-29T19:54:03.705Z,44.45
2022-11-29T19:56:32.283Z,49.22
2022-11-29T19:58:59.992Z,47.92
2022-11-29T20:01:40.269Z,51.60
2022-11-29T20:04:09.576Z,52.88
2022-11-29T20:06:37.089Z,43.55
2022-11-29T20:09:04.844Z,41.65
2022-11-29T20:11:32.388Z,40.47
2022-11-29T20:14:01.625Z,39.83
2022-11-29T20:16:30.057Z,36.90
2022-11-29T20:18:58.473Z,38.15
2022-11-29T20:21:28.992Z,37.95
2022-11-29T20:23:58.269Z,36.97
2022-11-29T20:26:26.709Z,38.05
2022-11-29T20:28:54.234Z,36.05
2022-11-29T20:31:23.173Z,34.75
2022-11-29T20:33:52.824Z,34.75
2022-11-29T20:36:41.863Z,33.78
2022-11-29T20:39:43.197Z,84.40
2022-11-29T20:42:35.173Z,35.63
2022-11-29T20:45:06.460Z,34.67
2022-11-29T20:47:41.459Z,34.92
2022-11-29T20:50:14.650Z,35.70
2022-11-29T20:53:03.334Z,35.38
2022-11-29T20:55:30.721Z,34.10
2022-11-29T20:57:58.108Z,36.15
2022-11-29T21:00:25.701Z,36.58
2022-11-29T21:02:53.094Z,34.88
2022-11-29T21:05:20.456Z,35.00
2022-11-29T21:07:47.874Z,33.63
2022-11-29T21:10:15.577Z,32.88
2022-11-29T21:12:45.684Z,33.58
2022-11-29T21:15:14.912Z,38.03
2022-11-29T21:17:43.188Z,35.83
2022-11-29T21:20:19.231Z,36.08
2022-11-29T21:23:08.860Z,33.13
2022-11-29T21:25:45.259Z,34.75
2022-11-29T21:28:14.886Z,40.63
2022-11-29T21:30:42.740Z,34.90
2022-11-29T21:33:11.380Z,37.38
2022-11-29T21:35:40.118Z,35.75
2022-11-29T21:38:13.770Z,36.72
2022-11-29T21:40:42.147Z,36.10
2022-11-29T21:43:09.447Z,38.08
2022-11-29T21:45:36.859Z,37.97
2022-11-29T21:48:24.317Z,39.30
2022-11-29T21:50:51.755Z,37.75
2022-11-29T21:53:19.199Z,40.85
2022-11-29T21:55:46.517Z,37.72
2022-11-29T21:58:13.861Z,36.50
2022-11-29T22:00:43.032Z,40.22
2022-11-29T22:03:10.390Z,36.50
2022-11-29T22:05:37.930Z,39.47
2022-11-29T22:08:05.489Z,36.92
2022-11-29T22:10:32.813Z,40.25
2022-11-29T22:13:00.217Z,38.95
2022-11-29T22:15:27.908Z,38.15
2022-11-29T22:17:56.263Z,38.05
2022-11-29T22:20:23.635Z,43.45
2022-11-29T22:22:55.715Z,38.13
2022-11-29T22:25:26.950Z,42.60
2022-11-29T22:27:54.242Z,41.30
2022-11-29T22:30:21.634Z,40.70
2022-11-29T22:32:48.944Z,45.25
2022-11-29T22:35:16.277Z,39.80
2022-11-29T22:37:43.622Z,40.55
2022-11-29T22:40:11.258Z,39.78
2022-11-29T22:42:38.644Z,37.75
2022-11-29T22:45:06.432Z,42.15
2022-11-29T22:47:33.702Z,39.35
2022-11-29T22:50:02.861Z,40.13
2022-11-29T22:52:30.180Z,42.15
2022-11-29T22:55:04.732Z,42.15
2022-11-29T22:57:32.467Z,40.08
2022-11-29T22:59:59.888Z,42.85
2022-11-29T23:02:28.153Z,44.80
2022-11-29T23:04:55.510Z,46.83
2022-11-29T23:07:22.893Z,45.72
2022-11-29T23:09:50.290Z,46.20
2022-11-29T23:12:18.748Z,48.10
2022-11-29T23:14:48.276Z,42.95
2022-11-29T23:17:18.910Z,45.00
2022-11-29T23:19:46.209Z,40.03
2022-11-29T23:22:13.551Z,43.30
2022-11-29T23:24:42.411Z,40.22
2022-11-29T23:27:09.814Z,43.72
2022-11-29T23:29:37.226Z,44.13
2022-11-29T23:32:04.764Z,44.67
2022-11-29T23:34:32.221Z,49.60
2022-11-29T23:36:59.509Z,50.45
2022-11-29T23:39:26.801Z,48.50
2022-11-29T23:41:54.160Z,45.22
2022-11-29T23:44:21.405Z,53.70
2022-11-29T23:46:48.762Z,45.70
2022-11-29T23:49:16.069Z,47.33
2022-11-29T23:51:43.493Z,45.10
2022-11-29T23:54:10.796Z,45.25
2022-11-29T23:56:38.134Z,44.75
2022-11-29T23:59:05.759Z,43.95
